Time;durP1;ratioP1;P1;durP2;ratioP2;P2;SDS_P1;SDS_P2;PMS_P1;PMS_P2;Temp;Humidity;BMP_temperature;BMP_pressure;BME280_temperature;BME280_humidity;BME280_pressure;Samples;Min_cycle;Max_cycle;Signal;HPM_P1;HPM_P2
2021/08/08 00:00:24;;;;;;;4.30;3.33;;;17.60;99.90;;;;;;5094703;28;20200;-67
2021/08/08 00:03:10;;;;;;;3.80;3.50;;;17.50;99.90;;;;;;5094963;28;20181;-68
2021/08/08 00:05:35;;;;;;;4.30;3.93;;;17.50;99.90;;;;;;5094761;28;20188;-69
2021/08/08 00:08:01;;;;;;;3.57;3.27;;;17.50;99.90;;;;;;5094395;28;20959;-68
2021/08/08 00:10:26;;;;;;;3.53;2.93;;;17.50;99.90;;;;;;5094695;28;20193;-68
2021/08/08 00:12:52;;;;;;;3.83;3.50;;;17.50;99.90;;;;;;5094625;28;20168;-68
2021/08/08 00:15:18;;;;;;;4.33;3.93;;;17.50;99.90;;;;;;5094619;28;20174;-67
2021/08/08 00:17:43;;;;;;;3.97;3.30;;;17.50;99.90;;;;;;5094780;28;20201;-68
2021/08/08 00:20:10;;;;;;;4.93;3.03;;;17.50;99.90;;;;;;5094667;28;20218;-68
2021/08/08 00:22:36;;;;;;;3.33;3.03;;;17.50;99.90;;;;;;5094518;28;20192;-66
2021/08/08 00:25:04;;;;;;;4.73;4.33;;;17.50;99.90;;;;;;5094510;28;20407;-68
2021/08/08 00:27:34;;;;;;;3.97;3.27;;;17.50;99.90;;;;;;5094031;28;20276;-68
2021/08/08 00:29:59;;;;;;;3.40;3.10;;;17.50;99.90;;;;;;5093352;28;20416;-67
2021/08/08 00:32:25;;;;;;;5.80;2.90;;;17.50;99.90;;;;;;5094311;28;21003;-69
2021/08/08 00:34:50;;;;;;;3.67;3.37;;;17.50;99.90;;;;;;5094300;28;20169;-68
2021/08/08 00:37:15;;;;;;;4.40;3.53;;;17.50;99.90;;;;;;5094300;28;20176;-69
2021/08/08 00:39:41;;;;;;;4.13;3.53;;;17.50;99.90;;;;;;5094417;28;20176;-68
2021/08/08 00:42:06;;;;;;;3.27;2.97;;;17.60;99.90;;;;;;5094272;28;20673;-69
2021/08/08 00:44:32;;;;;;;3.40;3.10;;;17.50;99.90;;;;;;5094446;28;20537;-69
2021/08/08 00:46:58;;;;;;;5.17;3.00;;;17.50;99.90;;;;;;5094182;28;20237;-68
2021/08/08 00:49:24;;;;;;;5.03;3.30;;;17.50;99.90;;;;;;5093966;28;20234;-69
2021/08/08 00:51:50;;;;;;;3.80;3.00;;;17.50;99.90;;;;;;5094085;28;20188;-68
2021/08/08 00:54:15;;;;;;;3.00;2.70;;;17.40;99.90;;;;;;5094024;28;20411;-68
2021/08/08 00:56:41;;;;;;;5.80;3.10;;;17.40;99.90;;;;;;5093689;28;20585;-69
2021/08/08 00:59:06;;;;;;;5.87;3.30;;;17.30;99.90;;;;;;5094022;28;20617;-67
2021/08/08 01:01:42;;;;;;;3.83;3.17;;;17.30;99.90;;;;;;5093765;28;20195;-67
2021/08/08 01:04:11;;;;;;;5.50;3.60;;;17.20;99.90;;;;;;5093731;28;20173;-67
2021/08/08 01:06:53;;;;;;;6.17;2.83;;;17.20;99.90;;;;;;5093851;28;20513;-68
2021/08/08 01:09:21;;;;;;;5.10;3.47;;;17.20;99.90;;;;;;5093981;28;20935;-68
2021/08/08 01:11:48;;;;;;;4.03;3.73;;;17.20;99.90;;;;;;5093732;28;20421;-69
2021/08/08 01:14:14;;;;;;;3.83;3.40;;;17.20;99.90;;;;;;5093809;28;20399;-70
2021/08/08 01:16:42;;;;;;;3.33;3.13;;;17.20;99.90;;;;;;5093772;28;20442;-70
2021/08/08 01:19:10;;;;;;;4.30;3.27;;;17.10;99.90;;;;;;5093424;28;20413;-71
2021/08/08 01:21:40;;;;;;;3.37;3.07;;;17.10;99.90;;;;;;5093130;28;20478;-69
2021/08/08 01:24:06;;;;;;;5.17;3.20;;;17.10;99.90;;;;;;5093567;28;20414;-69
2021/08/08 01:26:33;;;;;;;3.57;3.23;;;17.00;99.90;;;;;;5093486;28;20455;-67
2021/08/08 01:29:01;;;;;;;3.87;3.13;;;17.00;99.90;;;;;;5093127;28;20406;-71
2021/08/08 01:31:26;;;;;;;3.17;2.87;;;17.00;99.90;;;;;;5093141;28;20439;-70
2021/08/08 01:33:53;;;;;;;4.10;3.80;;;16.90;99.90;;;;;;5093013;28;20399;-69
2021/08/08 01:36:19;;;;;;;3.23;3.03;;;16.90;99.90;;;;;;5093103;28;20172;-69
2021/08/08 01:39:03;;;;;;;3.60;3.40;;;16.90;99.90;;;;;;5092997;28;20434;-69
2021/08/08 01:41:35;;;;;;;3.83;3.53;;;16.90;99.90;;;;;;5093029;28;20419;-70
2021/08/08 01:44:03;;;;;;;3.30;3.00;;;16.90;99.90;;;;;;5090393;28;20415;-70
2021/08/08 01:46:32;;;;;;;4.50;3.50;;;16.90;99.90;;;;;;5093000;28;20402;-70
2021/08/08 01:48:59;;;;;;;4.27;3.40;;;16.90;99.90;;;;;;5093002;28;20802;-69
2021/08/08 01:51:29;;;;;;;4.00;3.53;;;16.80;99.90;;;;;;5092125;28;20921;-72
2021/08/08 01:53:55;;;;;;;3.80;3.50;;;16.80;99.90;;;;;;5092897;28;20902;-70
2021/08/08 01:56:20;;;;;;;4.17;3.23;;;16.80;99.90;;;;;;5092576;28;20401;-70
2021/08/08 01:58:46;;;;;;;3.70;3.40;;;16.80;99.90;;;;;;5092708;28;20611;-70
2021/08/08 02:01:11;;;;;;;3.80;3.50;;;16.70;99.90;;;;;;5092415;28;20276;-70
2021/08/08 02:03:39;;;;;;;3.30;3.10;;;16.80;99.90;;;;;;5092716;28;20166;-70
2021/08/08 02:06:08;;;;;;;5.10;3.70;;;16.70;99.90;;;;;;5092330;28;20185;-69
2021/08/08 02:08:34;;;;;;;3.73;3.43;;;16.70;99.90;;;;;;5092342;28;20474;-71
2021/08/08 02:11:00;;;;;;;4.80;3.60;;;16.70;99.90;;;;;;5092046;28;20429;-70
2021/08/08 02:13:26;;;;;;;4.10;3.30;;;16.70;99.90;;;;;;5093847;28;20497;-71
2021/08/08 02:15:52;;;;;;;3.87;3.57;;;16.70;99.90;;;;;;5093042;28;20626;-69
2021/08/08 02:18:18;;;;;;;3.67;3.10;;;16.70;99.90;;;;;;5092059;28;20408;-68
2021/08/08 02:20:45;;;;;;;5.37;4.07;;;16.70;99.90;;;;;;5091897;28;20195;-68
2021/08/08 02:23:11;;;;;;;3.93;3.53;;;16.70;99.90;;;;;;5092281;28;20444;-69
2021/08/08 02:25:37;;;;;;;3.60;3.30;;;16.70;99.90;;;;;;5091887;28;20410;-70
2021/08/08 02:28:05;;;;;;;4.80;3.70;;;16.70;99.90;;;;;;5091879;28;20204;-69
2021/08/08 02:30:31;;;;;;;3.50;3.20;;;16.70;99.90;;;;;;5092023;28;20462;-68
2021/08/08 02:32:56;;;;;;;3.17;2.87;;;16.60;99.90;;;;;;5091898;28;20879;-68
2021/08/08 02:35:22;;;;;;;5.63;3.47;;;16.60;99.90;;;;;;5092157;28;20537;-69
2021/08/08 02:37:47;;;;;;;3.40;3.10;;;16.60;99.90;;;;;;5091939;28;20179;-70
2021/08/08 02:40:13;;;;;;;5.00;3.30;;;16.60;99.90;;;;;;5091666;28;20213;-70
2021/08/08 02:42:41;;;;;;;3.77;3.47;;;16.60;99.90;;;;;;5091621;28;20649;-70
2021/08/08 02:45:08;;;;;;;3.30;3.00;;;16.60;99.90;;;;;;5091834;28;20471;-70
2021/08/08 02:47:33;;;;;;;3.47;3.17;;;16.70;99.90;;;;;;5091712;28;20526;-68
2021/08/08 02:49:59;;;;;;;4.10;3.67;;;16.60;99.90;;;;;;5091856;28;20438;-69
2021/08/08 02:52:25;;;;;;;3.47;2.87;;;16.60;99.90;;;;;;5091724;28;20199;-69
2021/08/08 02:54:50;;;;;;;3.33;3.03;;;16.60;99.90;;;;;;5091797;28;20483;-70
2021/08/08 02:57:16;;;;;;;5.13;3.17;;;16.70;99.90;;;;;;5091686;28;20494;-69
2021/08/08 02:59:41;;;;;;;3.60;3.30;;;16.70;99.90;;;;;;5091773;28;20175;-69
2021/08/08 03:02:10;;;;;;;3.27;2.97;;;16.60;99.90;;;;;;5091543;28;20268;-69
2021/08/08 03:04:35;;;;;;;3.90;3.60;;;16.60;99.90;;;;;;5094624;28;20173;-70
2021/08/08 03:07:01;;;;;;;3.50;3.00;;;16.70;99.90;;;;;;5095664;28;20461;-70
2021/08/08 03:09:26;;;;;;;4.70;3.50;;;16.60;99.90;;;;;;5095696;28;20178;-70
2021/08/08 03:11:52;;;;;;;3.53;3.23;;;16.60;99.90;;;;;;5095657;28;20195;-71
2021/08/08 03:14:18;;;;;;;4.00;3.17;;;16.60;99.90;;;;;;5095898;28;20169;-71
2021/08/08 03:16:46;;;;;;;4.33;3.07;;;16.60;99.90;;;;;;5094173;28;20284;-70
2021/08/08 03:19:12;;;;;;;5.00;3.23;;;16.70;99.90;;;;;;5095573;28;20507;-70
2021/08/08 03:21:38;;;;;;;3.67;3.37;;;16.70;99.90;;;;;;5095357;28;20420;-70
2021/08/08 03:24:04;;;;;;;5.13;2.80;;;16.70;99.90;;;;;;5095090;28;20942;-71
2021/08/08 03:26:31;;;;;;;4.40;3.37;;;16.80;99.90;;;;;;5095311;28;20420;-70
2021/08/08 03:28:56;;;;;;;3.47;3.00;;;16.80;99.90;;;;;;5095499;28;20409;-70
2021/08/08 03:31:22;;;;;;;3.43;3.13;;;16.90;99.90;;;;;;5095167;28;20934;-69
2021/08/08 03:33:48;;;;;;;5.43;3.37;;;16.80;99.90;;;;;;5095554;28;20171;-69
2021/08/08 03:36:13;;;;;;;3.30;3.00;;;16.90;99.90;;;;;;5095291;28;20484;-68
2021/08/08 03:38:39;;;;;;;6.13;3.60;;;16.90;99.90;;;;;;5095393;28;20175;-69
2021/08/08 03:41:05;;;;;;;3.57;3.27;;;17.00;99.90;;;;;;5095202;28;20198;-69
2021/08/08 03:43:30;;;;;;;3.97;3.50;;;16.90;99.90;;;;;;5095295;28;20228;-69
2021/08/08 03:45:56;;;;;;;3.13;2.80;;;16.90;99.90;;;;;;5094305;28;20179;-70
2021/08/08 03:48:21;;;;;;;3.63;3.33;;;16.90;99.90;;;;;;5094966;28;20199;-69
2021/08/08 03:50:47;;;;;;;3.27;2.97;;;16.90;99.90;;;;;;5094922;28;20187;-70
2021/08/08 03:53:13;;;;;;;3.57;3.23;;;16.90;99.90;;;;;;5095116;28;20525;-70
2021/08/08 03:55:40;;;;;;;3.37;2.80;;;17.00;99.90;;;;;;5095203;28;20168;-70
2021/08/08 03:58:06;;;;;;;3.00;2.57;;;17.00;99.90;;;;;;5094677;28;20174;-70
2021/08/08 04:00:31;;;;;;;6.23;3.33;;;17.00;99.90;;;;;;5093962;28;20894;-70
2021/08/08 04:03:00;;;;;;;3.10;2.90;;;17.00;99.90;;;;;;5094931;28;20169;-69
2021/08/08 04:05:25;;;;;;;3.40;3.10;;;16.90;99.90;;;;;;5093338;28;20194;-70
2021/08/08 04:07:51;;;;;;;3.37;3.07;;;16.90;99.90;;;;;;5094345;28;20456;-70
2021/08/08 04:10:16;;;;;;;3.73;3.40;;;16.80;99.90;;;;;;5094714;28;20172;-70
2021/08/08 04:12:42;;;;;;;3.40;3.10;;;16.80;99.90;;;;;;5094823;28;20175;-70
2021/08/08 04:15:08;;;;;;;3.30;3.00;;;16.80;99.90;;;;;;5094011;28;20158;-70
2021/08/08 04:17:33;;;;;;;3.60;3.30;;;16.70;99.90;;;;;;5094728;28;20181;-71
2021/08/08 04:19:59;;;;;;;3.47;3.17;;;16.80;99.90;;;;;;5094106;28;20397;-70
2021/08/08 04:22:25;;;;;;;2.57;2.37;;;16.70;99.90;;;;;;5093879;28;20199;-70
2021/08/08 04:24:51;;;;;;;3.60;3.30;;;16.70;99.90;;;;;;5094101;28;20180;-69
2021/08/08 04:27:16;;;;;;;4.83;3.13;;;16.70;99.90;;;;;;5093745;28;20209;-70
2021/08/08 04:29:42;;;;;;;3.53;2.77;;;16.70;99.90;;;;;;5094410;28;20526;-69
2021/08/08 04:32:08;;;;;;;4.30;3.10;;;16.80;99.90;;;;;;5093650;28;20190;-69
2021/08/08 04:34:34;;;;;;;3.63;2.70;;;16.80;99.90;;;;;;5093809;28;20163;-69
2021/08/08 04:37:00;;;;;;;11.30;2.63;;;16.90;99.90;;;;;;5093792;28;20420;-70
2021/08/08 04:39:26;;;;;;;3.00;2.73;;;16.90;99.90;;;;;;5093781;28;20287;-70
2021/08/08 04:41:54;;;;;;;3.70;2.77;;;17.00;99.90;;;;;;5093528;28;20975;-69
2021/08/08 04:44:20;;;;;;;3.40;2.33;;;17.10;99.90;;;;;;5093666;28;20172;-69
2021/08/08 04:46:46;;;;;;;2.60;2.40;;;17.20;99.90;;;;;;5093709;28;20454;-70
2021/08/08 04:49:11;;;;;;;5.20;2.80;;;17.20;99.90;;;;;;5093183;28;20764;-70
2021/08/08 04:51:37;;;;;;;5.70;2.60;;;17.20;99.90;;;;;;5093360;28;20192;-69
2021/08/08 04:54:03;;;;;;;2.73;2.53;;;17.30;99.90;;;;;;5093429;28;20249;-69
2021/08/08 04:56:28;;;;;;;4.53;2.33;;;17.40;99.90;;;;;;5093861;28;20513;-69
2021/08/08 04:58:53;;;;;;;2.70;2.50;;;17.30;99.90;;;;;;5093352;28;20179;-68
2021/08/08 05:01:19;;;;;;;2.63;2.43;;;17.30;99.90;;;;;;5093063;28;20189;-70
2021/08/08 05:03:44;;;;;;;5.20;2.77;;;17.30;99.90;;;;;;5093332;28;20460;-69
2021/08/08 05:06:10;;;;;;;2.70;2.50;;;17.40;99.90;;;;;;5093120;28;20188;-69
2021/08/08 05:08:35;;;;;;;4.20;2.20;;;17.20;99.90;;;;;;5093152;28;20280;-69
2021/08/08 05:11:01;;;;;;;2.53;2.33;;;17.20;99.90;;;;;;5093275;28;20198;-69
2021/08/08 05:13:28;;;;;;;2.13;1.90;;;17.20;99.90;;;;;;5093270;28;20250;-68
2021/08/08 05:15:54;;;;;;;2.43;2.23;;;17.30;99.90;;;;;;5093049;28;20159;-69
2021/08/08 05:18:19;;;;;;;3.50;1.93;;;17.30;99.90;;;;;;5093195;28;20417;-68
2021/08/08 05:20:45;;;;;;;4.50;2.30;;;17.10;99.90;;;;;;5092894;28;20435;-69
2021/08/08 05:23:10;;;;;;;2.10;1.73;;;17.20;99.90;;;;;;5093093;28;20168;-68
2021/08/08 05:25:36;;;;;;;3.33;2.00;;;17.50;99.90;;;;;;5092274;28;20173;-68
2021/08/08 05:28:02;;;;;;;3.30;1.87;;;17.60;99.90;;;;;;5092501;28;20280;-69
2021/08/08 05:30:27;;;;;;;2.37;1.53;;;18.40;99.90;;;;;;5092875;28;20547;-69
2021/08/08 05:32:52;;;;;;;3.33;1.73;;;18.40;99.90;;;;;;5092684;28;20167;-68
2021/08/08 05:35:18;;;;;;;2.73;1.77;;;18.90;99.90;;;;;;5092995;28;20263;-70
2021/08/08 05:37:44;;;;;;;1.90;1.63;;;19.10;99.90;;;;;;5092708;28;20172;-70
2021/08/08 05:40:10;;;;;;;3.47;1.47;;;19.00;99.90;;;;;;5091207;28;20268;-69
2021/08/08 05:42:37;;;;;;;5.77;1.50;;;19.10;99.90;;;;;;5092560;28;20214;-69
2021/08/08 05:45:04;;;;;;;1.60;1.40;;;19.40;99.90;;;;;;5092377;28;20769;-70
2021/08/08 05:47:30;;;;;;;1.83;1.63;;;19.40;99.90;;;;;;5092119;28;20477;-70
2021/08/08 05:49:56;;;;;;;1.73;1.50;;;19.50;99.90;;;;;;5092234;28;20549;-69
2021/08/08 05:52:21;;;;;;;3.50;1.67;;;19.40;99.90;;;;;;5092241;28;20552;-69
2021/08/08 05:54:47;;;;;;;2.07;1.77;;;19.10;99.90;;;;;;5092095;28;20171;-69
2021/08/08 05:57:12;;;;;;;2.17;1.27;;;19.20;99.90;;;;;;5092110;28;20274;-69
2021/08/08 05:59:37;;;;;;;2.13;1.40;;;19.90;99.90;;;;;;5092229;28;20188;-68
2021/08/08 06:02:03;;;;;;;2.20;1.63;;;19.90;99.90;;;;;;5091764;28;20199;-68
2021/08/08 06:04:28;;;;;;;4.50;1.57;;;19.90;99.90;;;;;;5092238;28;20424;-70
2021/08/08 06:06:54;;;;;;;1.70;1.40;;;19.80;99.90;;;;;;5091730;28;20220;-69
2021/08/08 06:09:20;;;;;;;2.50;1.33;;;20.30;99.90;;;;;;5092212;28;20512;-70
2021/08/08 06:11:45;;;;;;;1.50;1.20;;;20.50;99.90;;;;;;5092212;28;20199;-70
2021/08/08 06:14:11;;;;;;;1.30;1.20;;;21.60;99.90;;;;;;5092512;28;20163;-68
2021/08/08 06:16:36;;;;;;;2.30;1.40;;;21.70;99.90;;;;;;5091920;28;20275;-69
2021/08/08 06:19:02;;;;;;;1.80;1.03;;;21.50;99.90;;;;;;5091838;28;20178;-69
2021/08/08 06:21:27;;;;;;;2.37;1.57;;;22.20;99.90;;;;;;5091782;28;20187;-70
2021/08/08 06:23:53;;;;;;;2.00;1.30;;;22.20;99.90;;;;;;5092104;28;20164;-70
2021/08/08 06:26:18;;;;;;;2.13;1.93;;;22.50;99.90;;;;;;5091812;28;20165;-70
2021/08/08 06:28:43;;;;;;;1.77;1.13;;;22.00;99.90;;;;;;5091780;28;20203;-70
2021/08/08 06:31:09;;;;;;;1.30;1.20;;;21.80;99.90;;;;;;5091840;28;20239;-70
2021/08/08 06:33:34;;;;;;;1.37;1.10;;;22.10;99.90;;;;;;5092013;28;20256;-70
2021/08/08 06:36:00;;;;;;;2.57;1.20;;;22.00;99.90;;;;;;5091999;28;20263;-70
2021/08/08 06:38:25;;;;;;;1.40;1.30;;;22.10;99.90;;;;;;5091529;28;20628;-70
2021/08/08 06:40:51;;;;;;;1.57;1.30;;;23.30;99.90;;;;;;5091684;28;20196;-69
2021/08/08 06:43:16;;;;;;;1.57;1.00;;;22.70;99.90;;;;;;5091888;28;20172;-70
2021/08/08 06:45:42;;;;;;;1.67;1.37;;;24.20;99.90;;;;;;5091890;28;20168;-70
2021/08/08 06:48:07;;;;;;;2.03;0.97;;;23.70;99.90;;;;;;5091490;28;20193;-70
2021/08/08 06:50:34;;;;;;;1.73;1.00;;;23.50;99.90;;;;;;5091586;28;20251;-70
2021/08/08 06:52:59;;;;;;;1.40;1.20;;;24.70;99.90;;;;;;5091246;28;20165;-68
2021/08/08 06:55:25;;;;;;;1.30;1.20;;;24.70;99.90;;;;;;5090208;28;20771;-67
2021/08/08 06:57:50;;;;;;;1.67;1.10;;;24.90;99.90;;;;;;5091455;28;20161;-67
2021/08/08 07:00:17;;;;;;;2.20;1.50;;;24.80;99.90;;;;;;5091392;28;20653;-67
2021/08/08 07:02:42;;;;;;;1.93;1.17;;;24.90;99.90;;;;;;5091042;28;20177;-67
2021/08/08 07:05:09;;;;;;;1.10;1.00;;;23.90;99.90;;;;;;5091401;28;20890;-69
2021/08/08 07:07:34;;;;;;;1.90;1.30;;;25.20;99.90;;;;;;5091081;28;20686;-68
2021/08/08 07:10:00;;;;;;;1.97;1.00;;;24.50;99.90;;;;;;5091180;28;20417;-69
2021/08/08 07:12:25;;;;;;;3.20;1.00;;;24.80;99.90;;;;;;5091490;28;20185;-69
2021/08/08 07:14:51;;;;;;;1.20;1.10;;;24.90;99.90;;;;;;5091780;28;20169;-69
2021/08/08 07:17:16;;;;;;;1.77;1.30;;;25.30;99.90;;;;;;5091234;28;20226;-68
2021/08/08 07:19:42;;;;;;;2.40;1.10;;;26.40;99.90;;;;;;5091146;28;20173;-68
2021/08/08 07:22:08;;;;;;;1.67;0.70;;;25.80;99.90;;;;;;5091257;28;20195;-67
2021/08/08 07:24:34;;;;;;;2.23;1.30;;;26.10;99.90;;;;;;5091542;28;20165;-68
2021/08/08 07:27:09;;;;;;;1.57;1.33;;;25.40;99.90;;;;;;5090162;28;20800;-68
2021/08/08 07:29:34;;;;;;;1.63;1.40;;;25.50;99.90;;;;;;5090694;28;20161;-68
2021/08/08 07:32:00;;;;;;;2.13;1.30;;;25.30;99.90;;;;;;5091795;28;20430;-69
2021/08/08 07:34:25;;;;;;;1.13;0.90;;;26.20;99.90;;;;;;5092059;28;20665;-69
2021/08/08 07:36:51;;;;;;;2.10;1.10;;;25.50;99.90;;;;;;5091135;28;20248;-68
2021/08/08 07:39:16;;;;;;;1.80;0.80;;;26.40;99.90;;;;;;5091697;28;20173;-69
2021/08/08 07:41:42;;;;;;;1.37;0.90;;;26.70;99.90;;;;;;5091244;28;20677;-69
2021/08/08 07:44:10;;;;;;;1.10;1.00;;;26.40;99.90;;;;;;5091163;28;20170;-68
2021/08/08 07:46:39;;;;;;;2.07;1.20;;;26.20;99.90;;;;;;5091399;28;20173;-69
2021/08/08 07:49:04;;;;;;;1.30;1.20;;;26.10;99.90;;;;;;5091650;28;20587;-68
2021/08/08 07:51:29;;;;;;;1.57;0.93;;;26.70;99.90;;;;;;5095031;28;20788;-69
2021/08/08 07:53:55;;;;;;;0.93;0.83;;;25.90;99.90;;;;;;5094999;28;20180;-69
2021/08/08 07:56:20;;;;;;;0.80;0.70;;;26.60;99.90;;;;;;5095343;28;20161;-69
2021/08/08 07:58:46;;;;;;;1.17;0.97;;;26.60;99.90;;;;;;5094672;28;20169;-69
2021/08/08 08:01:11;;;;;;;1.07;0.97;;;25.80;99.90;;;;;;5094927;28;20272;-68
2021/08/08 08:03:37;;;;;;;1.10;1.00;;;24.00;99.90;;;;;;5094890;28;20223;-68
2021/08/08 08:06:05;;;;;;;2.07;1.00;;;24.60;99.90;;;;;;5094618;28;20562;-69
2021/08/08 08:08:33;;;;;;;1.10;0.83;;;25.80;99.90;;;;;;5094659;28;20193;-69
2021/08/08 08:10:59;;;;;;;1.70;1.00;;;25.80;99.90;;;;;;5094614;28;20427;-68
2021/08/08 08:13:25;;;;;;;2.27;1.00;;;24.20;99.90;;;;;;5094668;28;20458;-68
2021/08/08 08:15:50;;;;;;;3.93;1.20;;;25.40;99.90;;;;;;5094697;28;20431;-68
2021/08/08 08:18:16;;;;;;;0.87;0.80;;;25.40;99.90;;;;;;5094472;28;20199;-70
2021/08/08 08:20:47;;;;;;;1.63;0.97;;;25.40;99.90;;;;;;5094585;28;20196;-68
2021/08/08 08:23:15;;;;;;;1.73;0.90;;;25.00;99.90;;;;;;5094591;28;20215;-68
2021/08/08 08:25:44;;;;;;;1.20;1.00;;;24.30;99.90;;;;;;5094826;28;20736;-68
2021/08/08 08:28:12;;;;;;;1.73;1.10;;;23.10;99.90;;;;;;5094225;28;20508;-67
2021/08/08 08:30:41;;;;;;;1.00;0.90;;;22.80;99.90;;;;;;5093274;28;20514;-68
2021/08/08 08:33:06;;;;;;;1.77;1.10;;;23.00;99.90;;;;;;5094296;28;20427;-67
2021/08/08 08:35:40;;;;;;;2.37;0.87;;;22.80;99.90;;;;;;5094496;28;20445;-69
2021/08/08 08:38:06;;;;;;;2.63;1.60;;;23.00;99.90;;;;;;5092790;28;20250;-69
2021/08/08 08:40:36;;;;;;;2.13;0.83;;;22.80;99.90;;;;;;5093961;28;20455;-68
2021/08/08 08:43:05;;;;;;;1.47;1.00;;;23.40;99.90;;;;;;5094232;28;20655;-68
2021/08/08 08:45:32;;;;;;;2.50;1.10;;;24.60;99.90;;;;;;5094396;28;20412;-68
2021/08/08 08:48:03;;;;;;;1.20;0.97;;;24.40;99.90;;;;;;5093793;28;20464;-69
2021/08/08 08:50:31;;;;;;;0.80;0.73;;;24.20;99.90;;;;;;5094006;28;20425;-68
2021/08/08 08:53:00;;;;;;;1.20;1.00;;;22.80;99.90;;;;;;5093735;28;20443;-70
2021/08/08 08:55:52;;;;;;;1.20;0.90;;;22.60;99.90;;;;;;5094317;28;20468;-70
2021/08/08 08:58:17;;;;;;;2.13;1.00;;;23.10;99.90;;;;;;5094818;28;20426;-69
2021/08/08 09:00:43;;;;;;;1.30;1.20;;;24.30;99.90;;;;;;5094327;28;20427;-69
2021/08/08 09:03:09;;;;;;;1.33;1.03;;;25.00;99.90;;;;;;5094171;28;20168;-68
2021/08/08 09:05:37;;;;;;;2.13;0.97;;;24.60;99.90;;;;;;5094538;28;20727;-69
2021/08/08 09:08:05;;;;;;;2.80;0.80;;;25.50;99.90;;;;;;5096222;28;20980;-69
2021/08/08 09:10:33;;;;;;;2.73;0.90;;;25.40;99.90;;;;;;5095873;28;20841;-69
2021/08/08 09:13:04;;;;;;;1.30;1.13;;;25.00;99.90;;;;;;5094687;28;20422;-70
2021/08/08 09:15:38;;;;;;;3.23;1.23;;;25.00;99.90;;;;;;5093850;28;20404;-67
2021/08/08 09:18:10;;;;;;;1.90;0.90;;;24.30;99.90;;;;;;5093905;28;20415;-69
2021/08/08 09:20:36;;;;;;;1.90;1.10;;;24.20;99.90;;;;;;5093516;28;20420;-69
2021/08/08 09:23:02;;;;;;;1.20;1.10;;;24.60;99.90;;;;;;5093669;28;20402;-68
2021/08/08 09:25:28;;;;;;;1.67;1.00;;;24.90;99.90;;;;;;5093647;28;20220;-68
2021/08/08 09:28:06;;;;;;;5.23;0.97;;;24.90;99.90;;;;;;5093055;28;20596;-69
2021/08/08 09:30:36;;;;;;;1.13;1.03;;;25.10;99.90;;;;;;5093022;28;20177;-68
2021/08/08 09:33:03;;;;;;;0.90;0.80;;;25.10;99.90;;;;;;5092992;28;20457;-69
2021/08/08 09:35:35;;;;;;;1.03;0.80;;;25.70;99.90;;;;;;5092938;28;20407;-69
2021/08/08 09:38:09;;;;;;;1.17;0.93;;;25.80;99.90;;;;;;5092928;28;20444;-69
2021/08/08 09:40:37;;;;;;;1.33;1.23;;;25.20;99.90;;;;;;5093139;28;20467;-69
2021/08/08 09:43:06;;;;;;;1.87;0.87;;;25.90;99.90;;;;;;5092921;28;20472;-69
2021/08/08 09:45:46;;;;;;;0.93;0.83;;;25.80;99.90;;;;;;5093145;28;20400;-68
2021/08/08 09:48:13;;;;;;;3.00;1.00;;;25.60;99.90;;;;;;5091672;28;20537;-69
2021/08/08 09:50:40;;;;;;;1.70;1.10;;;24.40;99.90;;;;;;5092855;28;20480;-70
2021/08/08 09:53:08;;;;;;;2.40;1.00;;;24.70;99.90;;;;;;5092759;28;20410;-69
2021/08/08 09:55:37;;;;;;;1.37;1.17;;;25.20;99.90;;;;;;5092346;28;20403;-69
2021/08/08 09:58:04;;;;;;;3.93;0.93;;;23.80;99.90;;;;;;5092725;28;20417;-69
2021/08/08 10:00:36;;;;;;;1.57;1.07;;;23.40;99.90;;;;;;5092683;28;20563;-69
2021/08/08 10:03:07;;;;;;;2.33;1.00;;;23.50;99.90;;;;;;5092674;28;20905;-69
2021/08/08 10:05:34;;;;;;;1.17;0.80;;;24.10;99.90;;;;;;5092790;28;20430;-69
2021/08/08 10:08:10;;;;;;;1.10;1.00;;;25.20;99.90;;;;;;5092038;28;20466;-69
2021/08/08 10:10:38;;;;;;;1.53;1.20;;;24.80;99.90;;;;;;5092599;28;20422;-69
2021/08/08 10:13:29;;;;;;;1.40;0.90;;;24.10;99.90;;;;;;5091804;28;20432;-69
2021/08/08 10:15:56;;;;;;;1.03;0.97;;;24.50;99.90;;;;;;5092427;28;20408;-68
2021/08/08 10:18:25;;;;;;;3.00;1.50;;;24.10;99.90;;;;;;5091741;28;20435;-68
2021/08/08 10:20:53;;;;;;;2.40;1.30;;;24.20;99.90;;;;;;5091956;28;20425;-69
2021/08/08 10:23:20;;;;;;;2.37;1.70;;;23.50;99.90;;;;;;5091964;28;20407;-69
2021/08/08 10:25:48;;;;;;;1.67;1.57;;;23.50;99.90;;;;;;5091956;28;20402;-68
2021/08/08 10:28:14;;;;;;;2.03;1.83;;;23.80;99.90;;;;;;5091640;28;20459;-68
2021/08/08 10:30:40;;;;;;;2.23;1.20;;;24.70;99.90;;;;;;5091684;28;20426;-69
2021/08/08 10:33:07;;;;;;;1.80;0.90;;;24.30;99.90;;;;;;5091436;28;20417;-69
2021/08/08 10:35:45;;;;;;;2.80;1.13;;;24.30;99.90;;;;;;5091768;28;20414;-69
2021/08/08 10:38:12;;;;;;;2.23;1.80;;;23.60;99.90;;;;;;5091615;28;20418;-68
2021/08/08 10:40:39;;;;;;;1.27;1.17;;;23.40;99.90;;;;;;5091705;28;20461;-68
2021/08/08 10:43:06;;;;;;;2.10;1.27;;;23.80;99.90;;;;;;5091638;28;20413;-68
2021/08/08 10:45:34;;;;;;;1.53;1.20;;;23.40;99.90;;;;;;5091390;28;20565;-69
2021/08/08 10:48:02;;;;;;;1.93;0.97;;;23.40;99.90;;;;;;5090195;28;20455;-70
2021/08/08 10:50:48;;;;;;;3.43;0.90;;;23.20;99.90;;;;;;5091437;28;20427;-69
2021/08/08 10:53:28;;;;;;;1.67;1.57;;;23.50;99.90;;;;;;5091706;28;20462;-69
2021/08/08 10:56:09;;;;;;;2.10;1.40;;;23.70;99.90;;;;;;5091266;28;20450;-69
2021/08/08 10:58:39;;;;;;;2.50;1.20;;;24.00;99.90;;;;;;5090284;28;20414;-69
2021/08/08 11:01:18;;;;;;;2.00;1.27;;;24.10;99.90;;;;;;5091498;28;20808;-69
2021/08/08 11:03:51;;;;;;;1.67;1.20;;;23.90;99.90;;;;;;5091778;28;20465;-69
2021/08/08 11:06:21;;;;;;;2.80;1.67;;;23.60;99.90;;;;;;5091131;28;20477;-69
2021/08/08 11:08:52;;;;;;;2.50;1.37;;;24.20;99.90;;;;;;5091370;28;20465;-69
2021/08/08 11:11:22;;;;;;;2.50;1.33;;;24.20;99.90;;;;;;5091918;28;20439;-69
2021/08/08 11:13:48;;;;;;;1.63;1.20;;;24.00;99.90;;;;;;5091550;28;20798;-69
2021/08/08 11:16:13;;;;;;;6.83;1.30;;;23.20;99.90;;;;;;5091296;28;20417;-68
2021/08/08 11:18:39;;;;;;;1.13;1.03;;;22.90;99.90;;;;;;5091406;28;20176;-68
2021/08/08 11:21:13;;;;;;;1.40;1.30;;;22.90;99.90;;;;;;5091005;28;20193;-69
2021/08/08 11:23:38;;;;;;;1.70;0.93;;;23.20;99.90;;;;;;5091524;28;20168;-68
2021/08/08 11:26:04;;;;;;;1.30;1.20;;;23.10;99.90;;;;;;5095133;28;20774;-69
2021/08/08 11:28:29;;;;;;;1.43;0.90;;;23.10;99.90;;;;;;5094993;28;20208;-69
2021/08/08 11:30:55;;;;;;;6.00;1.90;;;23.30;99.90;;;;;;5095241;28;20220;-69
2021/08/08 11:33:25;;;;;;;2.30;1.30;;;23.90;99.90;;;;;;5095163;28;20170;-68
2021/08/08 11:35:59;;;;;;;1.63;1.40;;;23.90;99.90;;;;;;5094832;28;20165;-70
2021/08/08 11:38:27;;;;;;;1.57;1.20;;;23.40;99.90;;;;;;5095252;28;20409;-68
2021/08/08 11:40:52;;;;;;;1.70;1.60;;;23.50;99.90;;;;;;5095634;28;20456;-69
2021/08/08 11:43:17;;;;;;;1.60;1.20;;;23.60;99.90;;;;;;5095231;28;20860;-69
2021/08/08 11:45:47;;;;;;;3.33;1.70;;;23.80;99.90;;;;;;5095030;28;20193;-68
2021/08/08 11:48:16;;;;;;;1.93;1.50;;;23.90;99.90;;;;;;5094871;28;20203;-69
2021/08/08 11:50:43;;;;;;;2.03;1.60;;;24.10;99.90;;;;;;5095023;28;20493;-69
2021/08/08 11:53:09;;;;;;;1.47;1.30;;;23.90;99.90;;;;;;5094978;28;20400;-69
2021/08/08 11:55:36;;;;;;;2.53;2.10;;;23.70;99.90;;;;;;5094971;28;20405;-68
2021/08/08 11:58:07;;;;;;;2.33;1.60;;;24.10;99.90;;;;;;5094992;28;20537;-68
2021/08/08 12:00:35;;;;;;;2.00;1.80;;;24.30;99.90;;;;;;5094604;28;20425;-69
2021/08/08 12:03:01;;;;;;;3.50;1.50;;;24.10;99.90;;;;;;5093090;28;20422;-69
2021/08/08 12:05:27;;;;;;;1.20;1.10;;;24.10;99.90;;;;;;5094771;28;20418;-69
2021/08/08 12:07:53;;;;;;;1.90;1.30;;;24.20;99.90;;;;;;5094593;28;20633;-69
2021/08/08 12:10:34;;;;;;;2.50;1.20;;;24.00;99.90;;;;;;5094642;28;20434;-69
2021/08/08 12:13:00;;;;;;;2.20;1.47;;;24.10;99.90;;;;;;5094259;28;20897;-69
2021/08/08 12:15:36;;;;;;;3.07;1.73;;;23.90;99.90;;;;;;5094808;28;20988;-70
2021/08/08 12:18:03;;;;;;;1.10;1.00;;;24.00;99.90;;;;;;5094289;28;20412;-68
2021/08/08 12:20:34;;;;;;;1.50;1.40;;;24.00;99.90;;;;;;5094616;28;20419;-69
2021/08/08 12:23:04;;;;;;;3.00;1.67;;;24.40;99.90;;;;;;5094343;28;20419;-69
2021/08/08 12:25:32;;;;;;;3.93;1.40;;;24.40;99.90;;;;;;5094250;28;20931;-68
2021/08/08 12:28:00;;;;;;;2.20;1.40;;;24.30;99.90;;;;;;5094546;28;20456;-69
2021/08/08 12:30:29;;;;;;;2.10;1.50;;;24.40;99.90;;;;;;5094205;28;20914;-69
2021/08/08 12:33:09;;;;;;;1.53;1.33;;;24.20;99.90;;;;;;5094688;28;20464;-69
2021/08/08 12:35:42;;;;;;;2.33;1.50;;;24.20;99.90;;;;;;5093818;28;20410;-69
2021/08/08 12:38:11;;;;;;;1.37;1.10;;;24.30;99.60;;;;;;5094352;28;20421;-69
2021/08/08 12:40:42;;;;;;;3.07;1.13;;;24.30;97.20;;;;;;5093015;28;20481;-69
2021/08/08 12:43:08;;;;;;;1.50;1.10;;;24.30;97.90;;;;;;5093702;28;20866;-68
2021/08/08 12:45:38;;;;;;;2.27;1.23;;;24.10;98.70;;;;;;5094889;28;20406;-69
2021/08/08 12:48:04;;;;;;;2.20;1.00;;;24.20;98.90;;;;;;5094007;28;20486;-69